Flight Track Log - Related Links

Times and Time Zones

All times are in EDT time to prevent confusion due to time zone crossing. See the SWA1025 flight status page for this flight to view local times or setup timezone preferences in your user account.

Time Position Orientation Groundspeed Altitude Reporting Facility
EDT Latitude Longitude Course Direction KTS MPH feet Rate Location/Type
Sat 08:45:40 AM 39.1667 -76.7333 195° South 199 229 2,000  Level Potomac TRACON
Sat 08:46:35 AM 39.1167 -76.7500 195° South 252 290 4,700 3,074 Climbing Potomac TRACON
Sat 08:47:41 AM 39.0667 -76.6833 134° Southeast 263 303 8,200 2,750 Climbing Potomac TRACON
Sat 08:48:35 AM 39.0000 -76.6167 142° Southeast 303 349 10,200 1,789 Climbing Potomac TRACON
Sat 08:49:35 AM 38.9167 -76.6333 189° South 318 366 11,600 1,800 Climbing Potomac TRACON
Sat 08:50:35 AM 38.8333 -76.6500 189° South 356 410 13,800 2,021 Climbing Potomac TRACON
Sat 08:51:10 AM 38.7917 -76.6650 196° South 340 391 14,800 2,313 Climbing Washington Center
Sat 08:52:11 AM 38.6714 -76.6953 191° South 362 417 17,500 2,016 Climbing Washington Center
Sat 08:53:15 AM 38.5678 -76.7217 191° South 373 429 19,000 1,694 Climbing Washington Center
Sat 08:54:15 AM 38.4539 -76.7117 176° South 409 471 21,000 1,548 Climbing Washington Center
Sat 08:55:19 AM 38.3358 -76.6947 174° South 424 488 22,200 1,323 Climbing Washington Center
Sat 08:56:22 AM 38.2217 -76.6786 174° South 439 505 23,800 1,742 Climbing Washington Center
Sat 08:57:23 AM 38.0711 -76.6586 174° South 451 519 25,800 2,164 Climbing Washington Center
Sat 08:58:24 AM 37.9489 -76.6461 175° South 445 512 28,200 1,887 Climbing Washington Center
Sat 08:59:27 AM 37.8356 -76.6606 186° South 417 480 29,700 1,113 Climbing Washington Center
Sat 09:00:28 AM 37.7192 -76.6758 186° South 417 480 30,500 905 Climbing Washington Center
Sat 09:01:33 AM 37.6014 -76.6897 185° South 422 486 31,600 1,095 Climbing Washington Center
Sat 09:02:34 AM 37.4606 -76.7094 186° South 422 486 32,800 984 Climbing Washington Center
Sat 09:03:35 AM 37.3489 -76.7511 197° South 423 487 33,600 576 Climbing Washington Center
Sat 09:04:39 AM 37.2381 -76.7978 199° South 417 480 34,000 192 Climbing Washington Center
Sat 09:05:40 AM 37.1294 -76.8442 199° South 413 475 34,000  Level Washington Center
Sat 09:06:43 AM 37.0225 -76.8894 199° South 410 472 34,000  Level Washington Center
Sat 09:07:44 AM 36.9169 -76.9322 198° South 402 463 34,000  Level Washington Center
Sat 09:08:48 AM 36.8128 -76.9764 199° South 400 460 34,000  Level Washington Center
Sat 09:09:49 AM 36.6878 -77.0261 198° South 395 455 34,000  Level Washington Center
Sat 09:10:50 AM 36.5847 -77.0697 199° South 393 452 34,000  Level Washington Center
Sat 09:11:54 AM 36.4803 -77.1122 198° South 395 455 34,000  Level Washington Center
Sat 09:12:55 AM 36.3775 -77.1531 198° South 392 451 34,000  Level Washington Center
Sat 09:13:58 AM 36.2533 -77.2042 198° South 392 451 34,000  Level Washington Center
Sat 09:14:59 AM 36.1528 -77.2436 198° South 392 451 34,000  Level Washington Center
Sat 09:16:03 AM 36.0492 -77.2867 199° South 392 451 34,000  Level Washington Center
Sat 09:17:05 AM 35.9447 -77.3286 198° South 392 451 34,000  Level Washington Center
Sat 09:18:06 AM 35.8397 -77.3697 198° South 394 453 34,000  Level Washington Center
Sat 09:19:10 AM 35.7153 -77.4281 201° Southwest 397 457 34,000  Level Washington Center
Sat 09:20:10 AM 35.6239 -77.5067 215° Southwest 399 459 34,000  Level Washington Center
Sat 09:21:12 AM 35.5336 -77.5881 216° Southwest 399 459 34,000  Level Washington Center
Sat 09:22:16 AM 35.4428 -77.6686 216° Southwest 400 460 34,000  Level Washington Center
Sat 09:23:16 AM 35.3497 -77.7486 215° Southwest 403 464 34,000  Level Washington Center
Sat 09:24:20 AM 35.2586 -77.8289 216° Southwest 402 463 34,000  Level Washington Center
Sat 09:25:21 AM 35.1672 -77.9094 216° Southwest 405 466 34,000  Level Washington Center
Sat 09:26:25 AM 35.0558 -78.0056 215° Southwest 404 465 34,000  Level Washington Center
Sat 09:27:25 AM 34.9636 -78.0861 216° Southwest 405 466 34,000  Level Washington Center
Sat 09:28:30 AM 34.8719 -78.1658 216° Southwest 405 466 34,000  Level Washington Center
Sat 09:29:32 AM 34.7739 -78.2483 215° Southwest 404 465 34,000  Level Washington Center
Sat 09:30:32 AM 34.6831 -78.3272 216° Southwest 404 465 34,000  Level Washington Center
Sat 09:31:11 AM 34.6156 -78.3922 218° Southwest 423 487 34,000  Level Jacksonville Center
Sat 09:32:11 AM 34.5203 -78.4650 212° Southwest 412 474 34,000  Level Jacksonville Center
Sat 09:33:11 AM 34.4414 -78.5397 218° Southwest 412 474 34,000  Level Jacksonville Center
Sat 09:34:11 AM 34.3481 -78.6172 214° Southwest 412 474 34,000  Level Jacksonville Center
Sat 09:35:11 AM 34.2592 -78.6994 217° Southwest 412 474 34,000  Level Jacksonville Center
Sat 09:36:11 AM 34.1664 -78.7944 220° Southwest 412 474 34,000  Level Jacksonville Center
Sat 09:37:11 AM 34.0792 -78.8786 219° Southwest 407 468 34,000  Level Jacksonville Center
Sat 09:38:11 AM 33.9922 -78.9628 219° Southwest 407 468 34,000  Level Jacksonville Center
Sat 09:39:52 AM 33.8564 -79.0950 219° Southwest 400 460 34,000  Level Washington Center
Sat 09:40:53 AM 33.7711 -79.1797 220° Southwest 400 460 34,000  Level Washington Center
Sat 09:41:45 AM 33.7028 -79.2475 220° Southwest 400 460 34,000 -159 Level Washington Center
Sat 09:42:46 AM 33.6428 -79.3539 236° Southwest 398 458 33,700 -541 Descending Washington Center
Sat 09:43:47 AM 33.6800 -79.4806 289° West 407 468 32,900 -1,248 Descending Washington Center
Sat 09:44:51 AM 33.8081 -79.5186 346° North 420 483 31,100 -1,984 Descending Washington Center
Sat 09:45:51 AM 33.9186 -79.4800 16° North 420 483 28,800 -2,226 Descending Washington Center
Sat 09:46:55 AM 34.0269 -79.4406 17° North 415 478 26,500 -2,256 Descending Washington Center
Sat 09:47:56 AM 34.1342 -79.4047 15° North 408 470 24,100 -1,776 Descending Washington Center
Sat 09:49:00 AM 34.2383 -79.3681 16° North 401 461 22,800 -1,680 Descending Washington Center
Sat 09:50:01 AM 34.3614 -79.3269 15° North 392 451 20,600 -2,115 Descending Washington Center
Sat 09:51:02 AM 34.4631 -79.2917 16° North 388 447 18,500 -2,016 Descending Washington Center
Sat 09:52:06 AM 34.5633 -79.2567 16° North 366 421 16,400 -2,032 Descending Washington Center
Sat 09:53:06 AM 34.6619 -79.2208 17° North 347 399 14,300 -2,016 Descending Washington Center
Sat 09:54:11 AM 34.7519 -79.1897 16° North 338 389 12,200 -1,584 Descending Washington Center
Sat 09:55:11 AM 34.8294 -79.1619 16° North 329 379 11,000 -677 Descending Washington Center
Sat 09:56:15 AM 34.9367 -79.1247 16° North 330 380 10,800 -384 Descending Washington Center
Sat 09:57:16 AM 35.0336 -79.0903 16° North 352 405 10,200 -393 Descending Washington Center
Sat 09:58:17 AM 35.1281 -79.0569 16° North 349 402 10,000 -124 Descending Washington Center
Sat 09:58:53 AM 35.1847 -79.0378 15° North 336 387 10,000 -286 Level Washington Center
Sat 09:59:20 AM 35.2231 -79.0231 17° North 332 382 9,700 -867 Descending Washington Center
Sat 10:00:23 AM 35.3039 -78.9956 16° North 307 353 8,700 -823 Descending Washington Center
Sat 10:01:24 AM 35.3767 -78.9692 16° North 304 350 8,000 -432 Descending Washington Center
Sat 10:02:28 AM 35.4744 -78.9497 North 298 343 7,800 -619 Descending Washington Center
Sat 10:03:30 AM 35.5531 -78.9342 North 292 336 6,700 -1,328 Descending Washington Center
Sat 10:04:30 AM 35.6300 -78.9206 North 284 327 5,100 -1,366 Descending Washington Center
Sat 10:05:33 AM 35.7069 -78.9103 North 282 325 3,900 -1,056 Descending Washington Center
Sat 10:06:35 AM 35.7678 -78.9014 North 241 277 2,900 -976 Descending Washington Center
Sat 10:07:36 AM 35.8083 -78.8653 36° Northeast 148 170 1,900 -816 Descending Washington Center
Sat 10:08:40 AM 35.8350 -78.8336 44° Northeast 165 190 1,200 -528 Descending Washington Center
Sat 10:09:41 AM 35.8689 -78.7936 44° Northeast 156 180 800 -393 Descending Washington Center
Sat 10:11:00 AM 35.8667 -78.7833 11° North  Level FlightAware Approximate

Login

Don't have an account? Register now (free) for customized features, flight alerts, and more!